Terminal Aerodrome Forecast
Issued by NWS

Home | Current Version | Previous Version | Text Only | Print | Product List | Glossary On
Versions: 1 2 3 4 5 6 7 8 9 10 11 12 13 14 15 16 17 18
000
FTUS41 KALY 260657 AAA
TAFPSF
TAF AMD
KPSF 260657Z 2607/2706 24005KT 6SM BR BKN020 BKN250
     FM260800 27005KT P6SM BKN250
      TEMPO 2608/2611 2SM BR BKN005
     FM261200 29009G15KT P6SM SCT250
     FM261600 30012G18KT P6SM BKN040
     FM262200 30008KT P6SM SCT040=

USA.gov is the U.S. government's official web portal to all federal, state and local government web resources and services.